createdAt,value
2023-02-12T00:01:02.570Z,101487.50
2023-02-12T00:04:07.607Z,101491.22
2023-02-12T00:07:14.293Z,101496.28
2023-02-12T00:10:20.036Z,101498.34
2023-02-12T00:13:32.180Z,101493.38
2023-02-12T00:16:35.862Z,101472.19
2023-02-12T00:19:38.652Z,101469.59
2023-02-12T00:22:43.215Z,101469.81
2023-02-12T00:25:46.558Z,101460.28
2023-02-12T00:28:50.128Z,101467.75
2023-02-12T00:31:54.287Z,101471.84
2023-02-12T00:34:58.592Z,101463.28
2023-02-12T00:38:04.368Z,101463.28
2023-02-12T00:41:07.250Z,101471.84
2023-02-12T00:44:12.120Z,101456.03
2023-02-12T00:47:18.127Z,101458.62
2023-02-12T00:50:23.493Z,101468.06
2023-02-12T00:53:30.377Z,101463.06
2023-02-12T00:56:33.854Z,101468.34
2023-02-12T00:59:38.282Z,101457.22
2023-02-12T01:02:41.295Z,101451.66
2023-02-12T01:05:43.746Z,101457.78
2023-02-12T01:08:47.483Z,101460.19
2023-02-12T01:11:54.028Z,101458.56
2023-02-12T01:14:57.017Z,101464.53
2023-02-12T01:18:02.772Z,101474.00
2023-02-12T01:21:13.846Z,101469.72
2023-02-12T01:24:17.421Z,101462.25
2023-02-12T01:27:20.746Z,101460.69
2023-02-12T01:30:25.536Z,101449.84
2023-02-12T01:33:32.582Z,101452.34
2023-02-12T01:36:36.189Z,101441.06
2023-02-12T01:39:42.382Z,101435.69
2023-02-12T01:42:47.985Z,101422.75
2023-02-12T01:45:54.396Z,101431.44
2023-02-12T01:48:58.217Z,101425.56
2023-02-12T01:52:28.127Z,101418.34
2023-02-12T01:55:32.909Z,101442.72
2023-02-12T01:58:38.200Z,101443.00
2023-02-12T02:01:46.104Z,101438.78
2023-02-12T02:04:56.635Z,101453.28
2023-02-12T02:08:00.519Z,101459.56
2023-02-12T02:11:24.181Z,101452.03
2023-02-12T02:14:34.470Z,101449.56
2023-02-12T02:18:18.108Z,101452.50
2023-02-12T02:21:43.319Z,101460.44
2023-02-12T02:25:09.324Z,101459.41
2023-02-12T02:28:28.326Z,101466.25
2023-02-12T02:31:38.248Z,101473.84
2023-02-12T02:34:53.523Z,101483.41
2023-02-12T02:38:03.308Z,101484.63
2023-02-12T02:41:12.011Z,101503.66
2023-02-12T02:44:18.982Z,101503.91
2023-02-12T02:47:28.972Z,101499.03
2023-02-12T02:50:34.703Z,101494.87
2023-02-12T02:53:40.524Z,101491.56
2023-02-12T02:56:47.943Z,101491.69
2023-02-12T02:59:57.183Z,101492.22
2023-02-12T03:03:03.593Z,101497.59
2023-02-12T03:06:10.550Z,101498.56
2023-02-12T03:09:20.902Z,101506.28
2023-02-12T03:12:39.449Z,101504.44
2023-02-12T03:15:48.914Z,101510.28
2023-02-12T03:18:56.084Z,101519.91
2023-02-12T03:22:02.261Z,101517.38
2023-02-12T03:25:19.894Z,101522.56
2023-02-12T03:28:35.210Z,101528.53
2023-02-12T03:31:50.150Z,101532.19
2023-02-12T03:34:57.230Z,101533.88
2023-02-12T03:38:20.273Z,101530.59
2023-02-12T03:41:30.092Z,101535.78
2023-02-12T03:44:50.624Z,101546.03
2023-02-12T03:48:03.161Z,101541.53
2023-02-12T03:51:09.110Z,101553.50
2023-02-12T03:54:14.376Z,101557.12
2023-02-12T03:57:22.893Z,101557.25
2023-02-12T04:00:27.102Z,101559.00
2023-02-12T04:03:31.650Z,101569.44
2023-02-12T04:06:36.632Z,101566.16
2023-02-12T04:09:39.760Z,101570.19
2023-02-12T04:13:01.828Z,101577.94
2023-02-12T04:16:25.968Z,101584.09
2023-02-12T04:19:39.846Z,101591.75
2023-02-12T04:22:51.679Z,101590.06
2023-02-12T04:26:13.424Z,101599.66
2023-02-12T04:29:26.335Z,101610.63
2023-02-12T04:32:36.136Z,101618.16
2023-02-12T04:35:45.624Z,101615.50
2023-02-12T04:39:10.152Z,101612.16
2023-02-12T04:42:13.120Z,101606.00
2023-02-12T04:45:23.470Z,101623.09
2023-02-12T04:48:26.768Z,101623.09
2023-02-12T04:51:30.644Z,101629.31
2023-02-12T04:54:34.262Z,101634.63
2023-02-12T04:57:37.152Z,101644.22
2023-02-12T05:00:40.361Z,101650.22
2023-02-12T05:03:43.235Z,101645.22
2023-02-12T05:06:47.469Z,101654.69
2023-02-12T05:09:50.456Z,101657.97
2023-02-12T05:12:54.987Z,101659.09
2023-02-12T05:15:59.152Z,101670.31
2023-02-12T05:19:02.592Z,101678.13
2023-02-12T05:22:07.159Z,101682.31
2023-02-12T05:25:11.123Z,101683.25
2023-02-12T05:28:15.084Z,101689.25
2023-02-12T05:31:21.794Z,101708.34
2023-02-12T05:34:25.011Z,101714.41
2023-02-12T05:37:28.380Z,101705.13
2023-02-12T05:40:32.225Z,101704.31
2023-02-12T05:43:36.552Z,101718.13
2023-02-12T05:46:42.679Z,101716.59
2023-02-12T05:49:47.440Z,101710.38
2023-02-12T05:52:50.948Z,101724.13
2023-02-12T05:55:55.553Z,101720.75
2023-02-12T05:59:01.240Z,101732.56
2023-02-12T06:02:04.524Z,101731.84
2023-02-12T06:05:09.476Z,101737.78
2023-02-12T06:08:12.876Z,101749.91
2023-02-12T06:11:17.080Z,101752.44
2023-02-12T06:14:21.643Z,101763.59
2023-02-12T06:17:24.994Z,101768.81
2023-02-12T06:20:27.568Z,101762.66
2023-02-12T06:23:30.762Z,101768.41
2023-02-12T06:26:35.023Z,101776.88
2023-02-12T06:29:38.716Z,101769.31
2023-02-12T06:32:42.710Z,101764.16
2023-02-12T06:35:46.150Z,101776.97
2023-02-12T06:38:48.885Z,101779.44
2023-02-12T06:41:52.083Z,101774.91
2023-02-12T06:44:57.528Z,101785.19
2023-02-12T06:48:01.598Z,101798.84
2023-02-12T06:51:05.700Z,101808.09
2023-02-12T06:54:13.469Z,101811.22
2023-02-12T06:57:16.906Z,101820.37
2023-02-12T07:00:20.506Z,101824.31
2023-02-12T07:03:25.356Z,101820.66
2023-02-12T07:06:29.492Z,101830.75
2023-02-12T07:09:33.373Z,101838.19
2023-02-12T07:12:37.181Z,101836.25
2023-02-12T07:15:42.425Z,101849.88
2023-02-12T07:18:46.078Z,101849.72
2023-02-12T07:21:49.538Z,101850.34
2023-02-12T07:24:53.449Z,101867.31
2023-02-12T07:27:57.305Z,101866.94
2023-02-12T07:31:17.363Z,101873.53
2023-02-12T07:34:20.651Z,101880.19
2023-02-12T07:37:23.053Z,101884.03
2023-02-12T07:40:27.008Z,101881.94
2023-02-12T07:43:29.544Z,101879.19
2023-02-12T07:46:33.052Z,101891.66
2023-02-12T07:49:35.901Z,101896.44
2023-02-12T07:52:38.825Z,101890.03
2023-02-12T07:55:41.890Z,101897.56
2023-02-12T07:58:47.597Z,101902.06
2023-02-12T08:01:51.484Z,101897.25
2023-02-12T08:04:58.137Z,101899.72
2023-02-12T08:08:00.660Z,101911.94
2023-02-12T08:11:03.419Z,101909.09
2023-02-12T08:14:06.679Z,101921.87
2023-02-12T08:17:09.603Z,101923.97
2023-02-12T08:20:12.699Z,101915.75
2023-02-12T08:23:15.790Z,101924.31
2023-02-12T08:26:21.226Z,101933.69
2023-02-12T08:29:25.650Z,101934.22
2023-02-12T08:32:30.280Z,101938.22
2023-02-12T08:35:34.293Z,101939.91
2023-02-12T08:38:37.425Z,101939.78
2023-02-12T08:41:40.633Z,101949.84
2023-02-12T08:44:43.596Z,101945.34
2023-02-12T08:47:48.812Z,101940.34
2023-02-12T08:50:52.265Z,101944.75
2023-02-12T08:54:00.129Z,101954.66
2023-02-12T08:57:03.415Z,101949.81
2023-02-12T09:00:06.482Z,101959.84
2023-02-12T09:03:09.495Z,101966.31
2023-02-12T09:06:12.517Z,101972.56
2023-02-12T09:09:15.376Z,101976.16
2023-02-12T09:12:18.759Z,101971.28
2023-02-12T09:15:21.744Z,101983.47
2023-02-12T09:18:23.914Z,101983.50
2023-02-12T09:21:27.652Z,101991.06
2023-02-12T09:24:30.521Z,101996.06
2023-02-12T09:27:33.576Z,101997.19
2023-02-12T09:30:37.035Z,102002.97
2023-02-12T09:33:40.144Z,102002.25
2023-02-12T09:36:43.625Z,102002.72
2023-02-12T09:39:48.557Z,102002.69
2023-02-12T09:43:04.621Z,102007.66
2023-02-12T09:46:20.919Z,102009.56
2023-02-12T09:49:24.170Z,102004.09
2023-02-12T09:52:28.783Z,102008.28
2023-02-12T09:55:32.958Z,102014.72
2023-02-12T09:58:56.390Z,102011.28
2023-02-12T10:01:59.358Z,102015.06
2023-02-12T10:05:02.666Z,102017.66
2023-02-12T10:08:24.857Z,102019.94
2023-02-12T10:11:46.212Z,102029.94
2023-02-12T10:15:00.777Z,102022.44
2023-02-12T10:18:16.254Z,102020.56
2023-02-12T10:21:24.263Z,102023.03
2023-02-12T10:24:35.449Z,102026.63
2023-02-12T10:27:43.310Z,102033.47
2023-02-12T10:30:53.626Z,102035.41
2023-02-12T10:33:57.616Z,102035.72
2023-02-12T10:37:05.912Z,102043.91
2023-02-12T10:40:19.131Z,102035.34
2023-02-12T10:43:21.867Z,102042.25
2023-02-12T10:46:25.163Z,102050.13
2023-02-12T10:49:31.190Z,102045.12
2023-02-12T10:52:34.034Z,102040.63
2023-02-12T10:55:38.191Z,102044.72
2023-02-12T10:58:42.682Z,102046.84
2023-02-12T11:01:48.576Z,102033.50
2023-02-12T11:04:52.096Z,102043.63
2023-02-12T11:07:56.909Z,102032.84
2023-02-12T11:11:13.799Z,102034.06
2023-02-12T11:14:22.523Z,102047.34
2023-02-12T11:17:28.398Z,102039.91
2023-02-12T11:20:34.786Z,102036.47
2023-02-12T11:23:42.346Z,102046.22
2023-02-12T11:26:46.361Z,102043.87
2023-02-12T11:30:05.133Z,102046.81
2023-02-12T11:33:18.875Z,102047.91
2023-02-12T11:36:25.547Z,102045.88
2023-02-12T11:39:33.961Z,102046.87
2023-02-12T11:42:39.631Z,102044.63
2023-02-12T11:45:48.546Z,102051.81
2023-02-12T11:48:53.076Z,102055.88
2023-02-12T11:51:58.312Z,102053.72
2023-02-12T11:55:08.286Z,102045.22
2023-02-12T11:58:19.430Z,102046.16
2023-02-12T12:01:28.932Z,102044.03
2023-02-12T12:04:36.592Z,102046.38
2023-02-12T12:07:43.586Z,102034.44
2023-02-12T12:10:58.326Z,102035.94
2023-02-12T12:14:25.100Z,102041.94
2023-02-12T12:17:54.211Z,102036.41
2023-02-12T12:21:23.417Z,102028.22
2023-02-12T12:24:40.393Z,102027.91
2023-02-12T12:28:07.137Z,102024.09
2023-02-12T12:31:19.713Z,102025.53
2023-02-12T12:34:26.675Z,102020.88
2023-02-12T12:37:41.954Z,102016.19
2023-02-12T12:41:05.019Z,102017.91
2023-02-12T12:44:17.273Z,102015.00
2023-02-12T12:47:20.175Z,102024.06
2023-02-12T12:50:56.215Z,102020.66
2023-02-12T12:54:04.111Z,102026.72
2023-02-12T12:57:11.275Z,102021.56
2023-02-12T13:00:26.141Z,102026.13
2023-02-12T13:03:44.929Z,102024.03
2023-02-12T13:06:55.075Z,102031.03
2023-02-12T13:10:17.443Z,102029.69
2023-02-12T13:13:29.479Z,102033.31
2023-02-12T13:16:39.193Z,102037.41
2023-02-12T13:19:53.520Z,102028.72
2023-02-12T13:23:03.262Z,102028.69
2023-02-12T13:26:18.261Z,102024.66
2023-02-12T13:29:34.937Z,102024.97
2023-02-12T13:32:44.070Z,102036.91
2023-02-12T13:35:48.304Z,102028.88
2023-02-12T13:39:02.360Z,102033.50
2023-02-12T13:42:07.919Z,102033.56
2023-02-12T13:45:19.979Z,102039.72
2023-02-12T13:48:24.861Z,102036.41
2023-02-12T13:51:47.848Z,102039.63
2023-02-12T13:54:57.569Z,102046.78
2023-02-12T13:58:19.127Z,102049.72
2023-02-12T14:01:38.250Z,102049.47
2023-02-12T14:04:45.603Z,102052.56
2023-02-12T14:07:49.293Z,102058.34
2023-02-12T14:11:04.817Z,102045.84
2023-02-12T14:14:08.036Z,102048.69
2023-02-12T14:17:29.563Z,102046.06
2023-02-12T14:20:35.215Z,102053.75
2023-02-12T14:23:38.449Z,102053.31
2023-02-12T14:26:41.606Z,102060.44
2023-02-12T14:30:01.849Z,102059.97
2023-02-12T14:33:08.134Z,102062.66
2023-02-12T14:36:22.135Z,102060.81
2023-02-12T14:39:26.169Z,102065.22
2023-02-12T14:42:31.126Z,102075.78
2023-02-12T14:45:38.701Z,102071.09
2023-02-12T14:48:42.115Z,102074.81
2023-02-12T14:51:54.813Z,102072.47
2023-02-12T14:55:08.022Z,102086.50
2023-02-12T14:58:20.505Z,102086.44
2023-02-12T15:01:31.524Z,102085.66
2023-02-12T15:04:40.905Z,102076.50
2023-02-12T15:07:59.509Z,102075.94
2023-02-12T15:11:07.309Z,102079.59
2023-02-12T15:14:17.980Z,102067.47
2023-02-12T15:17:29.986Z,102073.66
2023-02-12T15:21:02.061Z,102079.56
2023-02-12T15:24:09.250Z,102081.56
2023-02-12T15:27:13.756Z,102077.94
2023-02-12T15:30:26.321Z,102078.41
2023-02-12T15:33:32.561Z,102078.53
2023-02-12T15:36:36.265Z,102081.59
2023-02-12T15:39:44.175Z,102081.22
2023-02-12T15:42:57.713Z,102081.22
2023-02-12T15:46:01.995Z,102076.66
2023-02-12T15:49:19.186Z,102087.66
2023-02-12T15:52:34.296Z,102088.91
2023-02-12T15:55:42.055Z,102091.97
2023-02-12T15:58:52.804Z,102093.25
2023-02-12T16:02:01.469Z,102088.41
2023-02-12T16:05:06.580Z,102104.34
2023-02-12T16:08:16.152Z,102108.16
2023-02-12T16:11:21.731Z,102113.62
2023-02-12T16:14:41.766Z,102113.91
2023-02-12T16:17:47.643Z,102120.94
2023-02-12T16:20:50.425Z,102128.87
2023-02-12T16:23:53.096Z,102139.47
2023-02-12T16:26:59.870Z,102129.50
2023-02-12T16:30:07.331Z,102135.72
2023-02-12T16:33:29.815Z,102141.81
2023-02-12T16:36:33.136Z,102149.66
2023-02-12T16:39:56.676Z,102135.41
2023-02-12T16:43:01.215Z,102140.94
2023-02-12T16:46:06.914Z,102142.78
2023-02-12T16:49:16.622Z,102152.47
2023-02-12T16:52:30.128Z,102167.09
2023-02-12T16:55:34.182Z,102157.94
2023-02-12T16:58:37.879Z,102166.78
2023-02-12T17:01:43.332Z,102168.72
2023-02-12T17:04:47.753Z,102165.53
2023-02-12T17:07:51.142Z,102173.41
2023-02-12T17:10:55.076Z,102169.25
2023-02-12T17:13:58.109Z,102178.81
2023-02-12T17:17:04.365Z,102189.25
2023-02-12T17:20:07.531Z,102181.53
2023-02-12T17:23:11.092Z,102179.00
2023-02-12T17:26:14.734Z,102182.47
2023-02-12T17:29:18.037Z,102182.56
2023-02-12T17:32:21.667Z,102179.13
2023-02-12T17:35:26.010Z,102176.69
2023-02-12T17:38:29.384Z,102173.31
2023-02-12T17:41:32.558Z,102181.91
2023-02-12T17:44:35.381Z,102188.06
2023-02-12T17:47:40.235Z,102188.97
2023-02-12T17:50:44.208Z,102187.31
2023-02-12T17:53:47.799Z,102190.84
2023-02-12T17:56:51.043Z,102189.97
2023-02-12T17:59:55.988Z,102196.06
2023-02-12T18:03:00.255Z,102198.69
2023-02-12T18:06:05.829Z,102204.75
2023-02-12T18:09:09.165Z,102203.97
2023-02-12T18:12:12.717Z,102205.81
2023-02-12T18:15:18.481Z,102200.63
2023-02-12T18:18:22.477Z,102201.47
2023-02-12T18:21:27.530Z,102204.97
2023-02-12T18:24:35.936Z,102203.31
2023-02-12T18:27:41.291Z,102209.22
2023-02-12T18:30:45.612Z,102211.03
2023-02-12T18:33:49.542Z,102222.25
2023-02-12T18:36:52.101Z,102212.84
2023-02-12T18:39:57.241Z,102211.16
2023-02-12T18:43:00.845Z,102216.28
2023-02-12T18:46:10.818Z,102220.56
2023-02-12T18:49:14.617Z,102229.22
2023-02-12T18:52:18.725Z,102220.66
2023-02-12T18:55:22.537Z,102225.78
2023-02-12T18:58:26.857Z,102228.38
2023-02-12T19:01:32.417Z,102238.72
2023-02-12T19:04:36.128Z,102236.19
2023-02-12T19:07:39.830Z,102225.91
2023-02-12T19:10:42.814Z,102229.31
2023-02-12T19:13:46.629Z,102226.78
2023-02-12T19:16:51.532Z,102226.75
2023-02-12T19:19:54.347Z,102224.16
2023-02-12T19:22:57.100Z,102228.44
2023-02-12T19:26:06.635Z,102230.22
2023-02-12T19:29:08.853Z,102231.09
2023-02-12T19:32:11.434Z,102233.66
2023-02-12T19:35:14.038Z,102241.41
2023-02-12T19:38:16.868Z,102242.28
2023-02-12T19:41:22.568Z,102242.28
2023-02-12T19:44:26.575Z,102245.72
2023-02-12T19:47:29.210Z,102242.28
2023-02-12T19:50:33.705Z,102252.56
2023-02-12T19:53:38.251Z,102261.13
2023-02-12T19:56:42.218Z,102259.44
2023-02-12T19:59:46.959Z,102255.16
2023-02-12T20:02:49.347Z,102261.13
2023-02-12T20:05:53.483Z,102261.13
2023-02-12T20:08:56.578Z,102262.84
2023-02-12T20:11:59.895Z,102274.88
2023-02-12T20:15:03.306Z,102267.16
2023-02-12T20:18:06.769Z,102268.03
2023-02-12T20:21:14.960Z,102268.00
2023-02-12T20:24:17.746Z,102273.13
2023-02-12T20:27:21.056Z,102287.72
2023-02-12T20:30:25.176Z,102280.87
2023-02-12T20:33:28.102Z,102279.16
2023-02-12T20:36:32.122Z,102289.44
2023-02-12T20:39:35.101Z,102290.28
2023-02-12T20:42:38.425Z,102293.72
2023-02-12T20:45:40.946Z,102302.25
2023-02-12T20:48:44.622Z,102302.25
2023-02-12T20:51:49.581Z,102307.41
2023-02-12T20:54:52.775Z,102314.25
2023-02-12T20:57:56.176Z,102326.28
2023-02-12T21:01:25.664Z,102321.97
2023-02-12T21:04:30.512Z,102322.84
2023-02-12T21:07:35.562Z,102330.53
2023-02-12T21:10:38.452Z,102329.69
2023-02-12T21:13:58.626Z,102331.37
2023-02-12T21:17:05.292Z,102331.37
2023-02-12T21:20:07.931Z,102328.81
2023-02-12T21:23:10.687Z,102321.13
2023-02-12T21:26:17.390Z,102331.41
2023-02-12T21:29:20.290Z,102327.09
2023-02-12T21:32:22.865Z,102328.81
2023-02-12T21:35:25.835Z,102325.37
2023-02-12T21:38:28.333Z,102327.94
2023-02-12T21:41:34.813Z,102330.53
2023-02-12T21:44:37.710Z,102326.25
2023-02-12T21:47:40.715Z,102327.94
2023-02-12T21:50:43.202Z,102326.19
2023-02-12T21:53:47.567Z,102333.94
2023-02-12T21:56:50.574Z,102337.34
2023-02-12T21:59:53.178Z,102344.19
2023-02-12T22:02:56.071Z,102350.19
2023-02-12T22:06:06.230Z,102361.34
2023-02-12T22:09:10.202Z,102358.78
2023-02-12T22:12:13.021Z,102368.19
2023-02-12T22:15:16.003Z,102363.03
2023-02-12T22:18:19.001Z,102371.63
2023-02-12T22:21:21.979Z,102374.19
2023-02-12T22:24:24.628Z,102382.75
2023-02-12T22:27:27.035Z,102384.44
2023-02-12T22:30:30.108Z,102389.56
2023-02-12T22:33:33.313Z,102387.03
2023-02-12T22:36:37.548Z,102384.47
2023-02-12T22:39:40.750Z,102382.72
2023-02-12T22:42:44.032Z,102380.13
2023-02-12T22:45:46.736Z,102386.94
2023-02-12T22:48:50.525Z,102384.31
2023-02-12T22:51:53.599Z,102390.28
2023-02-12T22:54:56.788Z,102389.44
2023-02-12T22:58:00.408Z,102385.09
2023-02-12T23:01:08.163Z,102379.13
2023-02-12T23:04:18.512Z,102377.44
2023-02-12T23:07:22.056Z,102379.94
2023-02-12T23:10:25.453Z,102384.12
2023-02-12T23:13:30.202Z,102382.34
2023-02-12T23:16:34.369Z,102393.44
2023-02-12T23:19:37.413Z,102390.91
2023-02-12T23:22:40.086Z,102384.91
2023-02-12T23:25:43.289Z,102387.50
2023-02-12T23:28:46.278Z,102386.56
2023-02-12T23:31:49.251Z,102386.53
2023-02-12T23:34:52.027Z,102395.16
2023-02-12T23:37:54.435Z,102395.13
2023-02-12T23:40:58.236Z,102398.50
2023-02-12T23:44:01.639Z,102393.31
2023-02-12T23:47:04.445Z,102394.19
2023-02-12T23:50:07.961Z,102395.81
2023-02-12T23:53:11.657Z,102386.34
2023-02-12T23:56:14.109Z,102387.25
2023-02-12T23:59:16.929Z,102386.34
